createdAt,value
2017-12-20T00:01:19.340Z,26.37
2017-12-20T00:03:47.821Z,25.13
2017-12-20T00:06:17.024Z,25.33
2017-12-20T00:08:45.343Z,24.93
2017-12-20T00:11:13.694Z,25.80
2017-12-20T00:13:42.037Z,24.67
2017-12-20T00:16:10.363Z,26.40
2017-12-20T00:18:38.700Z,25.07
2017-12-20T00:21:07.144Z,24.73
2017-12-20T00:23:35.500Z,24.50
2017-12-20T00:26:03.809Z,22.63
2017-12-20T00:28:32.142Z,27.40
2017-12-20T00:31:00.456Z,26.53
2017-12-20T00:33:28.803Z,26.50
2017-12-20T00:35:57.134Z,27.40
2017-12-20T00:38:25.439Z,28.93
2017-12-20T00:40:53.800Z,28.37
2017-12-20T00:43:22.111Z,26.73
2017-12-20T00:45:50.583Z,24.40
2017-12-20T00:48:18.900Z,26.97
2017-12-20T00:50:47.223Z,26.03
2017-12-20T00:53:15.559Z,28.57
2017-12-20T00:55:43.875Z,27.43
2017-12-20T00:58:12.234Z,27.80
2017-12-20T01:00:43.504Z,30.87
2017-12-20T01:03:26.958Z,27.97
2017-12-20T01:05:55.540Z,29.50
2017-12-20T01:08:23.877Z,29.00
2017-12-20T01:10:52.207Z,31.40
2017-12-20T01:13:20.532Z,33.30
2017-12-20T01:15:48.886Z,29.47
2017-12-20T01:18:17.214Z,29.07
2017-12-20T01:20:45.571Z,32.60
2017-12-20T01:23:13.959Z,31.90
2017-12-20T01:25:44.775Z,34.70
2017-12-20T01:28:14.486Z,34.63
2017-12-20T01:30:42.825Z,36.27
2017-12-20T01:33:11.186Z,34.70
2017-12-20T01:35:40.279Z,37.47
2017-12-20T01:38:08.595Z,31.80
2017-12-20T01:40:36.944Z,34.10
2017-12-20T01:43:05.266Z,35.77
2017-12-20T01:45:33.571Z,33.63
2017-12-20T01:48:01.911Z,32.53
2017-12-20T01:50:30.221Z,35.50
2017-12-20T01:52:58.572Z,34.37
2017-12-20T01:55:27.036Z,34.73
2017-12-20T01:57:55.471Z,36.70
2017-12-20T02:00:23.797Z,33.30
2017-12-20T02:02:52.125Z,33.50
2017-12-20T02:05:20.453Z,35.43
2017-12-20T02:07:48.764Z,33.57
2017-12-20T02:10:17.114Z,36.03
2017-12-20T02:12:45.432Z,33.67
2017-12-20T02:15:14.028Z,31.93
2017-12-20T02:17:42.363Z,29.60
2017-12-20T02:20:10.674Z,30.87
2017-12-20T02:22:39.009Z,33.13
2017-12-20T02:25:07.366Z,30.97
2017-12-20T02:27:35.705Z,30.90
2017-12-20T02:30:03.996Z,32.00
2017-12-20T02:32:32.336Z,33.40
2017-12-20T02:35:00.663Z,30.20
2017-12-20T02:37:28.980Z,32.17
2017-12-20T02:39:57.340Z,31.97
2017-12-20T02:42:25.673Z,30.90
2017-12-20T02:44:53.986Z,32.40
2017-12-20T02:47:22.319Z,32.37
2017-12-20T02:49:50.650Z,29.03
2017-12-20T02:52:19.059Z,33.10
2017-12-20T02:54:47.500Z,33.97
2017-12-20T02:57:15.917Z,31.87
2017-12-20T02:59:44.276Z,31.30
2017-12-20T03:02:12.591Z,31.03
2017-12-20T03:04:41.736Z,31.00
2017-12-20T03:07:10.049Z,31.07
2017-12-20T03:09:38.382Z,31.47
2017-12-20T03:12:06.786Z,31.03
2017-12-20T03:14:35.141Z,29.93
2017-12-20T03:17:04.032Z,30.27
2017-12-20T03:19:32.460Z,29.60
2017-12-20T03:22:01.519Z,29.17
2017-12-20T03:24:29.837Z,27.80
2017-12-20T03:26:58.185Z,29.37
2017-12-20T03:29:26.976Z,28.50
2017-12-20T03:31:55.299Z,26.60
2017-12-20T03:34:23.624Z,28.77
2017-12-20T03:36:51.977Z,28.03
2017-12-20T03:39:20.332Z,31.10
2017-12-20T03:41:48.665Z,28.80
2017-12-20T03:44:16.987Z,27.50
2017-12-20T03:46:45.306Z,28.20
2017-12-20T03:49:13.640Z,30.90
2017-12-20T03:51:41.987Z,31.60
2017-12-20T03:54:10.320Z,29.80
2017-12-20T03:56:39.433Z,28.80
2017-12-20T03:59:07.756Z,27.43
2017-12-20T04:01:36.073Z,29.07
2017-12-20T04:04:04.403Z,28.43
2017-12-20T04:06:32.721Z,27.60
2017-12-20T04:09:01.099Z,28.83
2017-12-20T04:11:29.410Z,32.03
2017-12-20T04:13:57.762Z,28.80
2017-12-20T04:16:26.158Z,28.80
2017-12-20T04:18:54.612Z,26.80
2017-12-20T04:21:22.941Z,27.07
2017-12-20T04:23:51.267Z,27.67
2017-12-20T04:26:19.750Z,27.10
2017-12-20T04:28:48.147Z,25.90
2017-12-20T04:31:16.450Z,25.73
2017-12-20T04:33:52.696Z,25.73
2017-12-20T04:36:21.094Z,26.27
2017-12-20T04:38:49.439Z,25.40
2017-12-20T04:41:17.784Z,26.23
2017-12-20T04:43:46.109Z,28.53
2017-12-20T04:46:14.418Z,26.63
2017-12-20T04:48:42.876Z,28.17
2017-12-20T04:51:11.210Z,25.90
2017-12-20T04:53:39.533Z,27.27
2017-12-20T04:56:07.869Z,27.37
2017-12-20T04:58:37.183Z,27.87
2017-12-20T05:01:05.540Z,27.47
2017-12-20T05:03:33.901Z,28.30
2017-12-20T05:06:02.323Z,25.20
2017-12-20T05:08:31.297Z,27.00
2017-12-20T05:10:59.606Z,26.93
2017-12-20T05:13:27.955Z,27.47
2017-12-20T05:15:56.252Z,26.37
2017-12-20T05:18:24.734Z,25.50
2017-12-20T05:20:53.048Z,25.60
2017-12-20T05:23:21.377Z,27.50
2017-12-20T05:25:49.720Z,27.00
2017-12-20T05:28:18.056Z,24.63
2017-12-20T05:30:46.924Z,24.70
2017-12-20T05:33:15.338Z,28.07
2017-12-20T05:35:47.736Z,24.73
2017-12-20T05:38:16.078Z,24.60
2017-12-20T05:40:45.140Z,24.90
2017-12-20T05:43:13.481Z,24.83
2017-12-20T05:45:41.815Z,26.90
2017-12-20T05:48:10.176Z,26.10
2017-12-20T05:50:38.491Z,23.90
2017-12-20T05:53:07.766Z,23.83
2017-12-20T05:55:36.124Z,24.67
2017-12-20T05:58:04.432Z,25.50
2017-12-20T06:00:32.804Z,24.97
2017-12-20T06:03:01.189Z,24.30
2017-12-20T06:05:29.498Z,24.73
2017-12-20T06:07:57.828Z,23.90
2017-12-20T06:10:26.152Z,25.40
2017-12-20T06:12:54.552Z,26.43
2017-12-20T06:15:22.848Z,24.37
2017-12-20T06:17:51.210Z,24.80
2017-12-20T06:20:19.525Z,25.63
2017-12-20T06:22:47.858Z,22.00
2017-12-20T06:25:16.220Z,22.10
2017-12-20T06:27:44.575Z,23.87
2017-12-20T06:30:12.894Z,24.50
2017-12-20T06:32:41.208Z,22.23
2017-12-20T06:35:09.661Z,22.97
2017-12-20T06:37:38.134Z,21.40
2017-12-20T06:40:06.511Z,23.93
2017-12-20T06:42:36.123Z,20.23
2017-12-20T06:45:04.464Z,24.07
2017-12-20T06:47:32.800Z,21.20
2017-12-20T06:50:01.192Z,20.43
2017-12-20T06:52:29.570Z,22.33
2017-12-20T06:54:57.882Z,23.33
2017-12-20T06:57:26.229Z,22.33
2017-12-20T06:59:54.816Z,21.80
2017-12-20T07:02:23.182Z,21.30
2017-12-20T07:04:51.544Z,22.03
2017-12-20T07:07:20.785Z,19.27
2017-12-20T07:09:52.758Z,20.33
2017-12-20T07:12:21.199Z,19.77
2017-12-20T07:14:49.547Z,21.33
2017-12-20T07:17:17.933Z,20.50
2017-12-20T07:19:46.275Z,19.43
2017-12-20T07:22:14.637Z,22.60
2017-12-20T07:24:42.964Z,21.60
2017-12-20T07:27:11.341Z,18.30
2017-12-20T07:29:39.772Z,21.10
2017-12-20T07:32:08.098Z,20.43
2017-12-20T07:34:36.519Z,17.10
2017-12-20T07:37:04.829Z,20.13
2017-12-20T07:39:33.241Z,19.40
2017-12-20T07:42:01.902Z,20.33
2017-12-20T07:44:30.325Z,18.20
2017-12-20T07:46:58.689Z,18.10
2017-12-20T07:49:27.114Z,17.27
2017-12-20T07:51:55.457Z,18.97
2017-12-20T07:54:23.804Z,20.63
2017-12-20T07:56:52.169Z,19.47
2017-12-20T07:59:20.606Z,16.13
2017-12-20T08:01:48.938Z,19.20
2017-12-20T08:04:17.462Z,18.87
2017-12-20T08:06:45.982Z,17.60
2017-12-20T08:09:14.380Z,17.60
2017-12-20T08:11:42.815Z,16.93
2017-12-20T08:14:11.195Z,17.40
2017-12-20T08:16:39.757Z,18.10
2017-12-20T08:19:08.098Z,18.53
2017-12-20T08:21:36.522Z,19.03
2017-12-20T08:24:04.880Z,17.60
2017-12-20T08:26:33.470Z,16.80
2017-12-20T08:29:02.033Z,17.07
2017-12-20T08:31:30.429Z,17.60
2017-12-20T08:33:58.789Z,15.40
2017-12-20T08:36:27.179Z,18.60
2017-12-20T08:38:55.706Z,18.07
2017-12-20T08:41:26.373Z,17.87
2017-12-20T08:43:54.979Z,17.80
2017-12-20T08:46:23.469Z,15.40
2017-12-20T08:48:51.844Z,19.17
2017-12-20T08:51:20.274Z,15.87
2017-12-20T08:53:48.713Z,17.30
2017-12-20T08:56:17.069Z,16.40
2017-12-20T08:58:45.525Z,15.93
2017-12-20T09:01:14.036Z,15.97
2017-12-20T09:03:42.373Z,15.90
2017-12-20T09:06:10.800Z,17.90
2017-12-20T09:08:39.176Z,14.23
2017-12-20T09:11:07.518Z,17.33
2017-12-20T09:13:35.901Z,16.37
2017-12-20T09:16:04.292Z,16.83
2017-12-20T09:18:32.680Z,16.00
2017-12-20T09:21:01.087Z,14.83
2017-12-20T09:23:29.475Z,14.83
2017-12-20T09:25:57.891Z,16.87
2017-12-20T09:28:26.259Z,15.73
2017-12-20T09:30:54.759Z,17.10
2017-12-20T09:33:23.120Z,15.63
2017-12-20T09:35:51.479Z,15.83
2017-12-20T09:38:19.877Z,15.67
2017-12-20T09:40:48.374Z,17.87
2017-12-20T09:43:16.720Z,13.97
2017-12-20T09:45:45.144Z,15.90
2017-12-20T09:48:13.498Z,14.23
2017-12-20T09:50:41.954Z,13.93
2017-12-20T09:53:11.158Z,15.13
2017-12-20T09:55:39.585Z,12.07
2017-12-20T09:58:07.910Z,11.67
2017-12-20T10:00:36.288Z,12.97
2017-12-20T10:03:04.696Z,13.63
2017-12-20T10:05:33.135Z,10.37
2017-12-20T10:08:01.559Z,11.70
2017-12-20T10:10:30.009Z,12.57
2017-12-20T10:12:58.420Z,12.60
2017-12-20T10:15:27.775Z,11.77
2017-12-20T10:17:56.265Z,10.00
2017-12-20T10:20:24.636Z,9.97
2017-12-20T10:22:53.033Z,11.70
2017-12-20T10:25:21.448Z,9.73
2017-12-20T10:27:49.931Z,10.40
2017-12-20T10:30:19.966Z,11.47
2017-12-20T10:32:48.469Z,10.63
2017-12-20T10:35:36.986Z,10.17
2017-12-20T10:38:05.369Z,11.23
2017-12-20T10:40:34.529Z,10.87
2017-12-20T10:43:03.241Z,10.50
2017-12-20T10:45:31.651Z,10.67
2017-12-20T10:48:00.160Z,11.10
2017-12-20T10:50:28.591Z,11.03
2017-12-20T10:52:58.750Z,12.30
2017-12-20T10:55:27.105Z,9.90
2017-12-20T10:57:55.510Z,10.20
2017-12-20T11:00:23.909Z,9.33
2017-12-20T11:02:52.379Z,9.70
2017-12-20T11:05:20.946Z,10.17
2017-12-20T11:07:49.649Z,10.57
2017-12-20T11:10:18.022Z,9.80
2017-12-20T11:12:46.468Z,9.33
2017-12-20T11:15:15.133Z,8.57
2017-12-20T11:17:43.488Z,16.27
2017-12-20T11:20:12.390Z,14.20
2017-12-20T11:22:40.832Z,12.17
2017-12-20T11:25:09.316Z,18.73
2017-12-20T11:27:37.654Z,12.00
2017-12-20T11:30:06.084Z,10.50
2017-12-20T11:32:34.453Z,12.57
2017-12-20T11:35:02.980Z,14.10
2017-12-20T11:37:31.339Z,14.77
2017-12-20T11:39:59.678Z,10.47
2017-12-20T11:42:28.007Z,13.60
2017-12-20T11:44:56.377Z,12.17
2017-12-20T11:47:24.706Z,11.80
2017-12-20T11:49:53.158Z,8.33
2017-12-20T11:52:21.540Z,9.10
2017-12-20T11:54:51.009Z,8.67
2017-12-20T11:57:19.643Z,8.13
2017-12-20T11:59:48.111Z,10.50
2017-12-20T12:02:16.561Z,9.53
2017-12-20T12:04:45.009Z,9.87
2017-12-20T12:07:13.948Z,9.10
2017-12-20T12:09:43.759Z,9.30
2017-12-20T12:12:12.234Z,8.70
2017-12-20T12:14:40.702Z,9.00
2017-12-20T12:17:09.436Z,9.00
2017-12-20T12:19:38.454Z,9.80
2017-12-20T12:22:06.860Z,9.40
2017-12-20T12:24:35.230Z,9.27
2017-12-20T12:29:36.279Z,9.50
2017-12-20T12:32:04.752Z,9.30
2017-12-20T12:34:33.118Z,10.53
2017-12-20T12:37:01.488Z,10.20
2017-12-20T12:39:29.912Z,10.33
2017-12-20T12:41:58.541Z,10.20
2017-12-20T12:44:29.321Z,9.60
2017-12-20T12:46:58.065Z,9.17
2017-12-20T12:49:26.666Z,9.80
2017-12-20T12:51:55.386Z,10.70
2017-12-20T12:54:23.921Z,9.47
2017-12-20T12:56:52.799Z,11.03
2017-12-20T12:59:21.431Z,8.37
2017-12-20T13:01:50.779Z,10.57
2017-12-20T13:04:19.328Z,9.23
2017-12-20T13:06:48.073Z,10.00
2017-12-20T13:09:16.538Z,10.10
2017-12-20T13:11:44.963Z,9.70
2017-12-20T13:14:14.652Z,9.90
2017-12-20T13:16:43.052Z,10.10
2017-12-20T13:19:11.667Z,9.00
2017-12-20T13:21:40.228Z,10.40
2017-12-20T13:24:08.684Z,8.47
2017-12-20T13:26:37.213Z,11.07
2017-12-20T13:29:05.675Z,9.80
2017-12-20T13:31:34.149Z,8.03
2017-12-20T13:34:03.892Z,9.17
2017-12-20T13:36:32.382Z,9.60
2017-12-20T13:39:00.884Z,10.07
2017-12-20T13:41:29.470Z,7.90
2017-12-20T13:44:03.109Z,8.97
2017-12-20T13:46:32.889Z,8.77
2017-12-20T13:49:01.731Z,8.63
2017-12-20T13:51:30.270Z,8.47
2017-12-20T13:53:58.743Z,8.43
2017-12-20T13:56:27.275Z,8.47
2017-12-20T13:58:56.944Z,10.90
2017-12-20T14:01:25.496Z,8.63
2017-12-20T14:03:53.999Z,7.67
2017-12-20T14:06:22.399Z,7.60
2017-12-20T14:08:50.730Z,6.73
2017-12-20T14:11:19.049Z,7.70
2017-12-20T14:13:47.393Z,7.20
2017-12-20T14:16:15.722Z,6.37
2017-12-20T14:18:44.984Z,8.13
2017-12-20T14:21:13.333Z,8.10
2017-12-20T14:23:41.958Z,9.00
2017-12-20T14:26:10.524Z,8.03
2017-12-20T14:28:39.144Z,9.07
2017-12-20T14:31:07.534Z,7.23
2017-12-20T14:33:35.865Z,8.23
2017-12-20T14:36:04.495Z,7.30
2017-12-20T14:38:32.919Z,9.03
2017-12-20T14:41:01.314Z,8.70
2017-12-20T14:43:29.721Z,8.07
2017-12-20T14:45:59.135Z,7.77
2017-12-20T14:48:27.517Z,8.60
2017-12-20T14:50:55.935Z,7.10
2017-12-20T14:53:24.439Z,6.50
2017-12-20T14:55:52.765Z,8.33
2017-12-20T14:58:21.119Z,9.20
2017-12-20T15:00:50.738Z,8.00
2017-12-20T15:03:19.461Z,8.47
2017-12-20T15:05:47.841Z,8.93
2017-12-20T15:08:17.557Z,9.70
2017-12-20T15:10:46.051Z,8.67
2017-12-20T15:13:14.516Z,8.20
2017-12-20T15:15:42.975Z,9.00
2017-12-20T15:18:11.370Z,9.57
2017-12-20T15:20:39.730Z,8.27
2017-12-20T15:23:09.780Z,7.67
2017-12-20T15:25:38.209Z,8.30
2017-12-20T15:28:06.619Z,8.30
2017-12-20T15:30:35.273Z,8.50
2017-12-20T15:33:03.617Z,12.50
2017-12-20T15:35:32.452Z,8.57
2017-12-20T15:38:00.842Z,8.07
2017-12-20T15:40:29.219Z,8.30
2017-12-20T15:42:58.734Z,8.20
2017-12-20T15:45:27.500Z,8.77
2017-12-20T15:47:57.926Z,8.10
2017-12-20T15:50:27.767Z,9.40
2017-12-20T15:52:56.676Z,7.90
2017-12-20T15:55:33.116Z,7.77
2017-12-20T15:58:03.623Z,8.27
2017-12-20T16:00:34.321Z,8.50
2017-12-20T16:03:03.244Z,7.13
2017-12-20T16:05:31.792Z,9.03
2017-12-20T16:08:01.511Z,8.80
2017-12-20T16:10:31.008Z,8.27
2017-12-20T16:12:59.665Z,8.07
2017-12-20T16:18:00.680Z,6.80
2017-12-20T16:23:07.953Z,8.07
2017-12-20T16:25:46.118Z,7.97
2017-12-20T16:30:48.592Z,6.97
2017-12-20T16:33:17.287Z,6.80
2017-12-20T16:35:49.157Z,7.03
2017-12-20T16:38:20.389Z,7.83
2017-12-20T16:40:49.407Z,8.77
2017-12-20T16:43:20.385Z,8.97
2017-12-20T16:45:49.354Z,7.70
2017-12-20T16:48:18.034Z,6.83
2017-12-20T16:50:50.472Z,7.20
2017-12-20T16:53:30.999Z,8.90
2017-12-20T16:56:00.133Z,7.43
2017-12-20T17:01:05.162Z,7.97
2017-12-20T17:03:34.569Z,8.50
2017-12-20T17:06:07.299Z,10.30
2017-12-20T17:08:35.826Z,9.90
2017-12-20T17:11:06.629Z,7.80
2017-12-20T17:13:35.460Z,10.60
2017-12-20T17:16:04.493Z,8.60
2017-12-20T17:18:37.090Z,10.33
2017-12-20T17:21:05.793Z,9.87
2017-12-20T17:23:34.512Z,10.70
2017-12-20T17:26:04.666Z,9.63
2017-12-20T17:28:35.749Z,10.17
2017-12-20T17:31:04.788Z,11.03
2017-12-20T17:33:35.145Z,11.90
2017-12-20T17:36:04.746Z,10.20
2017-12-20T17:38:33.366Z,10.70
2017-12-20T17:41:01.788Z,11.70
2017-12-20T17:43:33.790Z,9.80
2017-12-20T17:46:02.973Z,10.93
2017-12-20T17:48:31.895Z,10.90
2017-12-20T17:51:00.491Z,12.60
2017-12-20T17:53:29.250Z,26.70
2017-12-20T17:55:57.743Z,18.63
2017-12-20T17:58:26.297Z,14.40
2017-12-20T18:00:55.516Z,12.97
2017-12-20T18:03:28.712Z,10.97
2017-12-20T18:05:57.155Z,10.37
2017-12-20T18:08:25.854Z,8.83
2017-12-20T18:10:54.229Z,8.47
2017-12-20T18:13:23.323Z,12.27
2017-12-20T18:15:51.774Z,10.20
2017-12-20T18:18:20.313Z,9.33
2017-12-20T18:20:48.683Z,14.40
2017-12-20T18:23:17.126Z,12.20
2017-12-20T18:25:45.448Z,11.83
2017-12-20T18:28:14.362Z,12.50
2017-12-20T18:30:42.687Z,10.60
2017-12-20T18:33:11.003Z,15.40
2017-12-20T18:35:39.704Z,14.43
2017-12-20T18:38:08.111Z,13.70
2017-12-20T18:43:10.086Z,17.63
2017-12-20T18:45:38.711Z,13.67
2017-12-20T18:48:07.024Z,12.77
2017-12-20T18:50:35.480Z,14.43
2017-12-20T18:53:03.968Z,12.67
2017-12-20T18:55:33.132Z,11.13
2017-12-20T18:58:01.557Z,13.67
2017-12-20T19:00:29.873Z,13.60
2017-12-20T19:02:58.182Z,12.40
2017-12-20T19:05:26.517Z,16.20
2017-12-20T19:07:54.840Z,14.50
2017-12-20T19:10:23.362Z,13.70
2017-12-20T19:12:52.991Z,14.87
2017-12-20T19:15:21.411Z,13.90
2017-12-20T19:17:49.758Z,15.00
2017-12-20T19:20:18.093Z,16.23
2017-12-20T19:22:46.563Z,14.63
2017-12-20T19:25:14.886Z,15.43
2017-12-20T19:27:43.332Z,17.23
2017-12-20T19:30:11.648Z,15.00
2017-12-20T19:32:39.965Z,13.70
2017-12-20T19:35:08.561Z,14.13
2017-12-20T19:37:36.961Z,15.13
2017-12-20T19:40:05.491Z,15.60
2017-12-20T19:42:33.886Z,17.90
2017-12-20T19:45:02.212Z,17.67
2017-12-20T19:47:30.685Z,18.87
2017-12-20T19:49:59.025Z,18.47
2017-12-20T19:52:27.688Z,17.37
2017-12-20T19:54:56.993Z,15.50
2017-12-20T19:57:26.287Z,14.17
2017-12-20T19:59:54.827Z,12.07
2017-12-20T20:02:23.398Z,13.07
2017-12-20T20:04:52.597Z,12.70
2017-12-20T20:07:21.033Z,11.07
2017-12-20T20:09:49.397Z,11.17
2017-12-20T20:12:17.771Z,9.50
2017-12-20T20:14:46.130Z,10.23
2017-12-20T20:17:14.599Z,8.30
2017-12-20T20:19:44.186Z,10.90
2017-12-20T20:22:12.499Z,11.20
2017-12-20T20:24:42.873Z,13.13
2017-12-20T20:27:12.854Z,15.47
2017-12-20T20:32:16.529Z,14.63
2017-12-20T20:34:45.138Z,14.07
2017-12-20T20:37:14.541Z,18.03
2017-12-20T20:39:43.463Z,18.87
2017-12-20T20:42:11.902Z,18.70
2017-12-20T20:44:40.427Z,18.23
2017-12-20T20:47:09.259Z,19.53
2017-12-20T20:49:44.173Z,21.77
2017-12-20T20:52:12.641Z,21.67
2017-12-20T20:54:41.194Z,19.70
2017-12-20T20:57:12.164Z,19.20
2017-12-20T20:59:40.602Z,19.90
2017-12-20T21:02:09.214Z,20.30
2017-12-20T21:04:38.974Z,20.10
2017-12-20T21:07:08.087Z,19.27
2017-12-20T21:09:37.027Z,20.20
2017-12-20T21:12:06.586Z,19.77
2017-12-20T21:14:35.622Z,20.20
2017-12-20T21:17:04.296Z,19.40
2017-12-20T21:19:34.329Z,21.37
2017-12-20T21:22:03.349Z,21.37
2017-12-20T21:24:32.005Z,20.80
2017-12-20T21:27:02.778Z,21.13
2017-12-20T21:29:37.392Z,19.93
2017-12-20T21:32:06.515Z,21.30
2017-12-20T21:34:35.498Z,22.87
2017-12-20T21:37:04.957Z,21.27
2017-12-20T21:39:34.834Z,21.10
2017-12-20T21:42:03.288Z,21.57
2017-12-20T21:44:31.814Z,22.07
2017-12-20T21:50:31.277Z,20.30
2017-12-20T21:52:59.881Z,21.30
2017-12-20T21:55:28.486Z,21.30
2017-12-20T21:57:56.849Z,18.47
2017-12-20T22:00:25.322Z,15.60
2017-12-20T22:02:53.713Z,18.10
2017-12-20T22:05:22.103Z,20.10
2017-12-20T22:07:50.623Z,19.00
2017-12-20T22:10:19.803Z,17.10
2017-12-20T22:12:48.629Z,17.40
2017-12-20T22:15:16.991Z,20.00
2017-12-20T22:17:45.419Z,18.20
2017-12-20T22:20:13.826Z,20.10
2017-12-20T22:22:42.176Z,18.27
2017-12-20T22:25:10.522Z,20.67
2017-12-20T22:27:39.629Z,19.37
2017-12-20T22:30:08.068Z,18.50
2017-12-20T22:32:38.887Z,19.40
2017-12-20T22:35:08.461Z,20.57
2017-12-20T22:37:36.939Z,18.70
2017-12-20T22:40:05.274Z,19.37
2017-12-20T22:42:33.723Z,19.50
2017-12-20T22:47:53.299Z,19.13
2017-12-20T22:50:21.664Z,19.50
2017-12-20T22:52:50.135Z,19.33
2017-12-20T22:55:19.423Z,19.30
2017-12-20T22:57:47.898Z,20.90
2017-12-20T23:03:11.663Z,20.13
2017-12-20T23:05:40.203Z,21.80
2017-12-20T23:08:09.858Z,20.10
2017-12-20T23:10:39.185Z,19.43
2017-12-20T23:15:57.326Z,19.17
2017-12-20T23:18:29.602Z,18.57
2017-12-20T23:21:00.111Z,19.83
2017-12-20T23:23:28.444Z,20.90
2017-12-20T23:25:57.297Z,17.83
2017-12-20T23:28:25.800Z,20.40
2017-12-20T23:30:54.277Z,20.53
2017-12-20T23:33:22.962Z,19.53
2017-12-20T23:35:51.768Z,20.33
2017-12-20T23:38:22.081Z,18.20
2017-12-20T23:40:50.586Z,19.50
2017-12-20T23:43:19.040Z,18.20
2017-12-20T23:45:47.521Z,18.87
2017-12-20T23:48:16.063Z,18.33
2017-12-20T23:50:44.834Z,18.33
2017-12-20T23:53:13.313Z,19.30
2017-12-20T23:55:41.699Z,20.53
2017-12-20T23:58:10.204Z,20.97
